sensor_id;sensor_type;location;lat;lon;timestamp;P1;durP1;ratioP1;P2;durP2;ratioP2
23590;SDS011;11973;52.098;7.582;2023-02-10T04:45:35;190.40;;;86.97;;
23590;SDS011;11973;52.098;7.582;2023-02-10T04:48:03;214.90;;;94.25;;
23590;SDS011;11973;52.098;7.582;2023-02-10T04:50:29;232.73;;;96.25;;
23590;SDS011;11973;52.098;7.582;2023-02-10T04:52:56;222.35;;;94.63;;
23590;SDS011;11973;52.098;7.582;2023-02-10T04:55:21;232.93;;;94.43;;
23590;SDS011;11973;52.098;7.582;2023-02-10T04:57:47;229.90;;;98.20;;
23590;SDS011;11973;52.098;7.582;2023-02-10T05:00:13;237.52;;;99.18;;
23590;SDS011;11973;52.098;7.582;2023-02-10T05:02:39;260.77;;;102.25;;
23590;SDS011;11973;52.098;7.582;2023-02-10T05:05:05;249.20;;;101.70;;
23590;SDS011;11973;52.098;7.582;2023-02-10T05:07:31;247.80;;;98.97;;
23590;SDS011;11973;52.098;7.582;2023-02-10T05:09:57;254.65;;;98.88;;
23590;SDS011;11973;52.098;7.582;2023-02-10T05:12:23;260.95;;;102.97;;
23590;SDS011;11973;52.098;7.582;2023-02-10T05:14:48;269.65;;;101.53;;
23590;SDS011;11973;52.098;7.582;2023-02-10T05:17:14;276.13;;;100.60;;
23590;SDS011;11973;52.098;7.582;2023-02-10T05:19:40;266.83;;;99.43;;
23590;SDS011;11973;52.098;7.582;2023-02-10T05:22:05;281.17;;;100.65;;
23590;SDS011;11973;52.098;7.582;2023-02-10T05:24:31;296.52;;;100.72;;
23590;SDS011;11973;52.098;7.582;2023-02-10T05:26:57;300.13;;;102.60;;
23590;SDS011;11973;52.098;7.582;2023-02-10T05:29:22;304.73;;;102.63;;
23590;SDS011;11973;52.098;7.582;2023-02-10T05:31:48;302.65;;;100.97;;
23590;SDS011;11973;52.098;7.582;2023-02-10T05:34:14;312.48;;;103.82;;
23590;SDS011;11973;52.098;7.582;2023-02-10T05:36:39;329.23;;;104.18;;
23590;SDS011;11973;52.098;7.582;2023-02-10T05:39:08;321.48;;;104.22;;
23590;SDS011;11973;52.098;7.582;2023-02-10T05:41:50;320.67;;;106.03;;
23590;SDS011;11973;52.098;7.582;2023-02-10T05:44:16;306.73;;;103.28;;
23590;SDS011;11973;52.098;7.582;2023-02-10T05:46:42;317.35;;;105.72;;
23590;SDS011;11973;52.098;7.582;2023-02-10T05:49:08;309.52;;;104.57;;
23590;SDS011;11973;52.098;7.582;2023-02-10T05:51:33;318.70;;;105.40;;
23590;SDS011;11973;52.098;7.582;2023-02-10T05:53:59;313.35;;;107.15;;
23590;SDS011;11973;52.098;7.582;2023-02-10T05:56:25;313.85;;;109.13;;
23590;SDS011;11973;52.098;7.582;2023-02-10T05:58:51;309.92;;;105.43;;
23590;SDS011;11973;52.098;7.582;2023-02-10T06:01:16;295.77;;;104.03;;
23590;SDS011;11973;52.098;7.582;2023-02-10T06:03:42;309.27;;;107.75;;
23590;SDS011;11973;52.098;7.582;2023-02-10T06:06:08;302.05;;;107.57;;
23590;SDS011;11973;52.098;7.582;2023-02-10T06:08:33;298.98;;;107.65;;
23590;SDS011;11973;52.098;7.582;2023-02-10T06:10:59;291.30;;;104.28;;
23590;SDS011;11973;52.098;7.582;2023-02-10T06:13:25;299.83;;;109.05;;
23590;SDS011;11973;52.098;7.582;2023-02-10T06:15:50;288.73;;;107.00;;
23590;SDS011;11973;52.098;7.582;2023-02-10T06:18:16;300.13;;;106.07;;
23590;SDS011;11973;52.098;7.582;2023-02-10T06:20:44;288.17;;;105.53;;
23590;SDS011;11973;52.098;7.582;2023-02-10T06:23:10;283.25;;;106.05;;
23590;SDS011;11973;52.098;7.582;2023-02-10T06:25:36;276.70;;;104.60;;
23590;SDS011;11973;52.098;7.582;2023-02-10T06:28:02;279.23;;;102.78;;
23590;SDS011;11973;52.098;7.582;2023-02-10T06:30:28;285.02;;;102.80;;
23590;SDS011;11973;52.098;7.582;2023-02-10T06:32:54;290.42;;;104.20;;
23590;SDS011;11973;52.098;7.582;2023-02-10T06:35:20;278.65;;;104.72;;
23590;SDS011;11973;52.098;7.582;2023-02-10T06:37:45;285.27;;;107.75;;
23590;SDS011;11973;52.098;7.582;2023-02-10T06:40:11;279.13;;;103.03;;
23590;SDS011;11973;52.098;7.582;2023-02-10T06:42:37;294.95;;;106.57;;
23590;SDS011;11973;52.098;7.582;2023-02-10T06:45:03;291.23;;;106.38;;
23590;SDS011;11973;52.098;7.582;2023-02-10T06:47:29;274.85;;;104.25;;
23590;SDS011;11973;52.098;7.582;2023-02-10T06:49:55;285.73;;;107.40;;
23590;SDS011;11973;52.098;7.582;2023-02-10T06:52:21;284.55;;;109.82;;
23590;SDS011;11973;52.098;7.582;2023-02-10T06:54:49;274.67;;;104.50;;
23590;SDS011;11973;52.098;7.582;2023-02-10T06:57:15;271.40;;;105.38;;
23590;SDS011;11973;52.098;7.582;2023-02-10T06:59:41;273.48;;;102.53;;
23590;SDS011;11973;52.098;7.582;2023-02-10T07:02:08;269.45;;;100.95;;
23590;SDS011;11973;52.098;7.582;2023-02-10T07:04:35;266.65;;;99.40;;
23590;SDS011;11973;52.098;7.582;2023-02-10T07:07:01;262.92;;;96.70;;
23590;SDS011;11973;52.098;7.582;2023-02-10T07:09:27;247.25;;;97.55;;
23590;SDS011;11973;52.098;7.582;2023-02-10T07:11:53;258.17;;;101.57;;
23590;SDS011;11973;52.098;7.582;2023-02-10T07:14:19;244.55;;;95.15;;
23590;SDS011;11973;52.098;7.582;2023-02-10T07:16:44;241.60;;;94.78;;
23590;SDS011;11973;52.098;7.582;2023-02-10T07:19:10;232.68;;;94.47;;
23590;SDS011;11973;52.098;7.582;2023-02-10T07:21:36;241.90;;;96.45;;
23590;SDS011;11973;52.098;7.582;2023-02-10T07:24:03;231.60;;;94.13;;
23590;SDS011;11973;52.098;7.582;2023-02-10T07:26:29;239.48;;;96.68;;
23590;SDS011;11973;52.098;7.582;2023-02-10T07:28:55;236.07;;;93.97;;
23590;SDS011;11973;52.098;7.582;2023-02-10T07:31:21;241.48;;;99.28;;
23590;SDS011;11973;52.098;7.582;2023-02-10T07:33:47;229.70;;;95.65;;
23590;SDS011;11973;52.098;7.582;2023-02-10T07:36:12;239.45;;;98.65;;
23590;SDS011;11973;52.098;7.582;2023-02-10T07:38:38;239.90;;;98.75;;
23590;SDS011;11973;52.098;7.582;2023-02-10T07:41:04;243.45;;;98.50;;
23590;SDS011;11973;52.098;7.582;2023-02-10T07:43:32;237.55;;;98.10;;
23590;SDS011;11973;52.098;7.582;2023-02-10T07:46:07;233.15;;;98.13;;
23590;SDS011;11973;52.098;7.582;2023-02-10T07:48:33;226.25;;;95.47;;
23590;SDS011;11973;52.098;7.582;2023-02-10T07:50:58;232.93;;;97.70;;
23590;SDS011;11973;52.098;7.582;2023-02-10T07:53:24;230.65;;;97.53;;
23590;SDS011;11973;52.098;7.582;2023-02-10T07:55:50;241.45;;;97.90;;
23590;SDS011;11973;52.098;7.582;2023-02-10T07:58:15;228.65;;;96.65;;
23590;SDS011;11973;52.098;7.582;2023-02-10T08:00:41;223.80;;;93.05;;
23590;SDS011;11973;52.098;7.582;2023-02-10T08:03:08;226.25;;;92.82;;
23590;SDS011;11973;52.098;7.582;2023-02-10T08:05:37;214.07;;;89.70;;
23590;SDS011;11973;52.098;7.582;2023-02-10T08:08:03;207.77;;;89.75;;
23590;SDS011;11973;52.098;7.582;2023-02-10T08:10:29;220.50;;;90.38;;
23590;SDS011;11973;52.098;7.582;2023-02-10T08:12:55;219.35;;;91.28;;
23590;SDS011;11973;52.098;7.582;2023-02-10T08:15:20;214.85;;;88.82;;
23590;SDS011;11973;52.098;7.582;2023-02-10T08:17:47;222.90;;;92.97;;
23590;SDS011;11973;52.098;7.582;2023-02-10T08:20:13;228.70;;;93.25;;
23590;SDS011;11973;52.098;7.582;2023-02-10T08:22:39;215.90;;;89.70;;
23590;SDS011;11973;52.098;7.582;2023-02-10T08:25:05;219.68;;;93.28;;
23590;SDS011;11973;52.098;7.582;2023-02-10T08:27:30;221.45;;;92.93;;
23590;SDS011;11973;52.098;7.582;2023-02-10T08:29:56;223.00;;;92.20;;
23590;SDS011;11973;52.098;7.582;2023-02-10T08:32:22;222.30;;;92.07;;
23590;SDS011;11973;52.098;7.582;2023-02-10T08:34:48;223.07;;;94.15;;
23590;SDS011;11973;52.098;7.582;2023-02-10T08:37:15;221.95;;;92.57;;
23590;SDS011;11973;52.098;7.582;2023-02-10T08:39:42;222.10;;;89.78;;
23590;SDS011;11973;52.098;7.582;2023-02-10T08:42:08;220.07;;;86.43;;
23590;SDS011;11973;52.098;7.582;2023-02-10T08:44:34;201.57;;;84.40;;
23590;SDS011;11973;52.098;7.582;2023-02-10T08:47:00;210.43;;;85.30;;
23590;SDS011;11973;52.098;7.582;2023-02-10T08:49:26;201.68;;;80.72;;
23590;SDS011;11973;52.098;7.582;2023-02-10T08:51:52;194.13;;;80.15;;
23590;SDS011;11973;52.098;7.582;2023-02-10T08:54:18;195.13;;;78.18;;
23590;SDS011;11973;52.098;7.582;2023-02-10T08:56:45;184.48;;;74.97;;
23590;SDS011;11973;52.098;7.582;2023-02-10T08:59:11;181.38;;;70.47;;
23590;SDS011;11973;52.098;7.582;2023-02-10T09:01:37;173.93;;;68.05;;
23590;SDS011;11973;52.098;7.582;2023-02-10T09:04:03;161.85;;;67.28;;
23590;SDS011;11973;52.098;7.582;2023-02-10T09:06:33;170.55;;;66.72;;
23590;SDS011;11973;52.098;7.582;2023-02-10T09:09:15;160.88;;;64.75;;
23590;SDS011;11973;52.098;7.582;2023-02-10T09:11:45;158.80;;;62.33;;
23590;SDS011;11973;52.098;7.582;2023-02-10T09:14:11;162.90;;;63.72;;
23590;SDS011;11973;52.098;7.582;2023-02-10T09:16:37;157.38;;;62.83;;
23590;SDS011;11973;52.098;7.582;2023-02-10T09:19:03;145.18;;;61.28;;
23590;SDS011;11973;52.098;7.582;2023-02-10T09:21:30;147.95;;;58.53;;
23590;SDS011;11973;52.098;7.582;2023-02-10T09:23:56;136.15;;;56.47;;
23590;SDS011;11973;52.098;7.582;2023-02-10T09:26:21;131.30;;;54.60;;
23590;SDS011;11973;52.098;7.582;2023-02-10T09:28:47;135.38;;;56.72;;
23590;SDS011;11973;52.098;7.582;2023-02-10T09:31:13;133.82;;;54.42;;
23590;SDS011;11973;52.098;7.582;2023-02-10T09:33:41;120.03;;;54.17;;
23590;SDS011;11973;52.098;7.582;2023-02-10T09:36:09;126.28;;;53.83;;
23590;SDS011;11973;52.098;7.582;2023-02-10T09:38:39;123.65;;;52.53;;
23590;SDS011;11973;52.098;7.582;2023-02-10T09:41:25;124.20;;;53.25;;
23590;SDS011;11973;52.098;7.582;2023-02-10T09:55:36;127.13;;;51.53;;
23590;SDS011;11973;52.098;7.582;2023-02-10T10:00:48;107.57;;;48.78;;
23590;SDS011;11973;52.098;7.582;2023-02-10T10:03:21;110.50;;;50.63;;
23590;SDS011;11973;52.098;7.582;2023-02-10T10:08:36;118.68;;;52.72;;
23590;SDS011;11973;52.098;7.582;2023-02-10T10:13:57;114.30;;;51.95;;
23590;SDS011;11973;52.098;7.582;2023-02-10T10:30:40;101.00;;;49.50;;
23590;SDS011;11973;52.098;7.582;2023-02-10T10:33:21;98.00;;;51.05;;
23590;SDS011;11973;52.098;7.582;2023-02-10T10:35:50;101.10;;;48.90;;
23590;SDS011;11973;52.098;7.582;2023-02-10T10:38:20;91.53;;;48.15;;
23590;SDS011;11973;52.098;7.582;2023-02-10T10:40:48;87.22;;;45.05;;
23590;SDS011;11973;52.098;7.582;2023-02-10T10:43:23;83.30;;;44.13;;
23590;SDS011;11973;52.098;7.582;2023-02-10T10:46:12;77.78;;;43.72;;
23590;SDS011;11973;52.098;7.582;2023-02-10T10:48:48;81.57;;;44.17;;
23590;SDS011;11973;52.098;7.582;2023-02-10T10:51:14;72.57;;;41.97;;
23590;SDS011;11973;52.098;7.582;2023-02-10T10:53:42;76.97;;;42.75;;
23590;SDS011;11973;52.098;7.582;2023-02-10T10:58:57;67.40;;;38.08;;
23590;SDS011;11973;52.098;7.582;2023-02-10T11:01:34;63.53;;;36.85;;
23590;SDS011;11973;52.098;7.582;2023-02-10T11:04:34;61.72;;;37.13;;
23590;SDS011;11973;52.098;7.582;2023-02-10T11:06:55;58.42;;;35.10;;
23590;SDS011;11973;52.098;7.582;2023-02-10T11:12:06;54.35;;;34.60;;
23590;SDS011;11973;52.098;7.582;2023-02-10T11:14:46;58.97;;;33.30;;
23590;SDS011;11973;52.098;7.582;2023-02-10T11:19:51;45.47;;;30.15;;
23590;SDS011;11973;52.098;7.582;2023-02-10T11:22:19;49.42;;;29.80;;
23590;SDS011;11973;52.098;7.582;2023-02-10T11:24:51;44.25;;;28.73;;
23590;SDS011;11973;52.098;7.582;2023-02-10T11:27:21;47.60;;;28.58;;
23590;SDS011;11973;52.098;7.582;2023-02-10T11:32:18;45.70;;;27.10;;
23590;SDS011;11973;52.098;7.582;2023-02-10T11:34:50;44.92;;;25.95;;
23590;SDS011;11973;52.098;7.582;2023-02-10T11:37:27;31.55;;;20.75;;
23590;SDS011;11973;52.098;7.582;2023-02-10T11:39:56;28.15;;;18.92;;
23590;SDS011;11973;52.098;7.582;2023-02-10T11:42:28;36.03;;;21.45;;
23590;SDS011;11973;52.098;7.582;2023-02-10T11:45:03;30.10;;;19.63;;
23590;SDS011;11973;52.098;7.582;2023-02-10T11:47:44;32.47;;;19.90;;
23590;SDS011;11973;52.098;7.582;2023-02-10T11:50:24;31.35;;;19.50;;
23590;SDS011;11973;52.098;7.582;2023-02-10T11:52:51;28.65;;;19.35;;
23590;SDS011;11973;52.098;7.582;2023-02-10T11:55:17;29.08;;;18.33;;
23590;SDS011;11973;52.098;7.582;2023-02-10T12:12:16;26.70;;;17.00;;
23590;SDS011;11973;52.098;7.582;2023-02-10T12:23:38;27.92;;;17.13;;
23590;SDS011;11973;52.098;7.582;2023-02-10T12:29:54;26.92;;;16.80;;
23590;SDS011;11973;52.098;7.582;2023-02-10T12:43:31;24.30;;;15.02;;
23590;SDS011;11973;52.098;7.582;2023-02-10T12:49:12;23.70;;;13.43;;
23590;SDS011;11973;52.098;7.582;2023-02-10T12:57:33;22.42;;;14.23;;
23590;SDS011;11973;52.098;7.582;2023-02-10T13:03:18;21.50;;;13.25;;
23590;SDS011;11973;52.098;7.582;2023-02-10T13:05:51;23.15;;;13.50;;
23590;SDS011;11973;52.098;7.582;2023-02-10T13:08:26;18.85;;;12.70;;
23590;SDS011;11973;52.098;7.582;2023-02-10T13:11:40;25.08;;;14.02;;
23590;SDS011;11973;52.098;7.582;2023-02-10T13:13:46;27.15;;;13.80;;
23590;SDS011;11973;52.098;7.582;2023-02-10T13:16:15;25.23;;;14.30;;
23590;SDS011;11973;52.098;7.582;2023-02-10T13:21:24;18.80;;;11.73;;
23590;SDS011;11973;52.098;7.582;2023-02-10T13:24:00;16.88;;;11.25;;
23590;SDS011;11973;52.098;7.582;2023-02-10T13:29:55;19.23;;;11.98;;
23590;SDS011;11973;52.098;7.582;2023-02-10T13:35:22;18.70;;;12.07;;
23590;SDS011;11973;52.098;7.582;2023-02-10T13:37:53;17.90;;;11.05;;
23590;SDS011;11973;52.098;7.582;2023-02-10T13:40:26;21.75;;;12.02;;
23590;SDS011;11973;52.098;7.582;2023-02-10T13:42:56;18.83;;;10.68;;
23590;SDS011;11973;52.098;7.582;2023-02-10T13:45:23;17.02;;;11.35;;
23590;SDS011;11973;52.098;7.582;2023-02-10T13:50:27;17.30;;;11.45;;
23590;SDS011;11973;52.098;7.582;2023-02-10T13:53:25;18.60;;;12.32;;
23590;SDS011;11973;52.098;7.582;2023-02-10T14:06:53;19.33;;;11.90;;
23590;SDS011;11973;52.098;7.582;2023-02-10T14:11:53;22.20;;;12.43;;
23590;SDS011;11973;52.098;7.582;2023-02-10T14:14:30;26.85;;;12.82;;
23590;SDS011;11973;52.098;7.582;2023-02-10T14:19:47;24.52;;;12.15;;
23590;SDS011;11973;52.098;7.582;2023-02-10T14:22:23;22.77;;;12.13;;
23590;SDS011;11973;52.098;7.582;2023-02-10T14:24:52;20.98;;;11.85;;
23590;SDS011;11973;52.098;7.582;2023-02-10T14:27:20;24.05;;;12.45;;
23590;SDS011;11973;52.098;7.582;2023-02-10T14:29:52;27.05;;;13.68;;
23590;SDS011;11973;52.098;7.582;2023-02-10T14:32:41;24.90;;;14.10;;
23590;SDS011;11973;52.098;7.582;2023-02-10T14:35:15;25.70;;;13.88;;
23590;SDS011;11973;52.098;7.582;2023-02-10T14:37:48;25.38;;;12.90;;
23590;SDS011;11973;52.098;7.582;2023-02-10T14:40:16;22.88;;;12.13;;
23590;SDS011;11973;52.098;7.582;2023-02-10T14:42:46;17.38;;;11.07;;
23590;SDS011;11973;52.098;7.582;2023-02-10T14:45:25;15.45;;;10.52;;
23590;SDS011;11973;52.098;7.582;2023-02-10T14:47:53;16.90;;;11.05;;
23590;SDS011;11973;52.098;7.582;2023-02-10T14:50:28;21.88;;;11.48;;
23590;SDS011;11973;52.098;7.582;2023-02-10T14:52:59;21.60;;;11.32;;
23590;SDS011;11973;52.098;7.582;2023-02-10T14:55:31;19.70;;;11.27;;
23590;SDS011;11973;52.098;7.582;2023-02-10T14:58:04;22.60;;;11.27;;
23590;SDS011;11973;52.098;7.582;2023-02-10T15:00:38;19.15;;;11.40;;
23590;SDS011;11973;52.098;7.582;2023-02-10T15:03:05;23.95;;;11.80;;
23590;SDS011;11973;52.098;7.582;2023-02-10T15:05:36;22.35;;;11.85;;
23590;SDS011;11973;52.098;7.582;2023-02-10T15:08:04;19.05;;;12.20;;
23590;SDS011;11973;52.098;7.582;2023-02-10T15:10:33;18.00;;;11.00;;
23590;SDS011;11973;52.098;7.582;2023-02-10T15:13:09;17.98;;;11.13;;
23590;SDS011;11973;52.098;7.582;2023-02-10T15:15:36;17.65;;;11.13;;
23590;SDS011;11973;52.098;7.582;2023-02-10T15:18:21;17.83;;;10.57;;
23590;SDS011;11973;52.098;7.582;2023-02-10T15:20:58;16.75;;;10.32;;
23590;SDS011;11973;52.098;7.582;2023-02-10T15:23:28;21.35;;;10.57;;
23590;SDS011;11973;52.098;7.582;2023-02-10T15:26:04;19.90;;;10.55;;
23590;SDS011;11973;52.098;7.582;2023-02-10T15:28:39;19.55;;;10.65;;
23590;SDS011;11973;52.098;7.582;2023-02-10T15:33:54;20.60;;;11.13;;
23590;SDS011;11973;52.098;7.582;2023-02-10T15:37:13;19.70;;;11.38;;
23590;SDS011;11973;52.098;7.582;2023-02-10T15:39:55;15.55;;;11.18;;
23590;SDS011;11973;52.098;7.582;2023-02-10T15:42:06;16.60;;;10.68;;
23590;SDS011;11973;52.098;7.582;2023-02-10T15:44:47;20.15;;;11.07;;
23590;SDS011;11973;52.098;7.582;2023-02-10T15:47:25;20.58;;;10.52;;
23590;SDS011;11973;52.098;7.582;2023-02-10T15:49:53;20.27;;;10.68;;
23590;SDS011;11973;52.098;7.582;2023-02-10T15:52:24;22.33;;;11.57;;
23590;SDS011;11973;52.098;7.582;2023-02-10T15:54:55;17.05;;;10.73;;
23590;SDS011;11973;52.098;7.582;2023-02-10T15:57:24;18.23;;;10.60;;
23590;SDS011;11973;52.098;7.582;2023-02-10T15:59:49;15.95;;;10.95;;
23590;SDS011;11973;52.098;7.582;2023-02-10T16:02:16;19.95;;;11.13;;
23590;SDS011;11973;52.098;7.582;2023-02-10T16:04:43;18.90;;;11.48;;
23590;SDS011;11973;52.098;7.582;2023-02-10T16:07:13;22.15;;;11.15;;
23590;SDS011;11973;52.098;7.582;2023-02-10T16:09:49;17.35;;;11.40;;
23590;SDS011;11973;52.098;7.582;2023-02-10T16:12:15;19.77;;;12.43;;
23590;SDS011;11973;52.098;7.582;2023-02-10T16:14:41;20.35;;;12.55;;
23590;SDS011;11973;52.098;7.582;2023-02-10T16:17:07;26.00;;;13.35;;
23590;SDS011;11973;52.098;7.582;2023-02-10T16:19:33;20.45;;;12.25;;
23590;SDS011;11973;52.098;7.582;2023-02-10T16:21:58;22.25;;;13.57;;
23590;SDS011;11973;52.098;7.582;2023-02-10T16:24:25;21.25;;;12.80;;
23590;SDS011;11973;52.098;7.582;2023-02-10T16:26:53;17.70;;;12.52;;
23590;SDS011;11973;52.098;7.582;2023-02-10T16:29:21;24.73;;;12.95;;
23590;SDS011;11973;52.098;7.582;2023-02-10T16:31:49;24.10;;;13.73;;
23590;SDS011;11973;52.098;7.582;2023-02-10T16:34:16;17.90;;;12.18;;
23590;SDS011;11973;52.098;7.582;2023-02-10T16:36:42;19.63;;;11.95;;
23590;SDS011;11973;52.098;7.582;2023-02-10T16:39:13;24.85;;;13.43;;
23590;SDS011;11973;52.098;7.582;2023-02-10T16:41:41;24.83;;;13.68;;
23590;SDS011;11973;52.098;7.582;2023-02-10T16:44:06;27.77;;;16.10;;
23590;SDS011;11973;52.098;7.582;2023-02-10T16:46:32;35.00;;;18.63;;
23590;SDS011;11973;52.098;7.582;2023-02-10T16:48:58;31.85;;;18.48;;
23590;SDS011;11973;52.098;7.582;2023-02-10T16:51:24;30.52;;;17.40;;
23590;SDS011;11973;52.098;7.582;2023-02-10T16:53:49;25.98;;;15.57;;
23590;SDS011;11973;52.098;7.582;2023-02-10T16:56:19;27.95;;;17.85;;
23590;SDS011;11973;52.098;7.582;2023-02-10T16:58:46;24.58;;;15.93;;
23590;SDS011;11973;52.098;7.582;2023-02-10T17:01:12;30.85;;;18.58;;
23590;SDS011;11973;52.098;7.582;2023-02-10T17:03:38;25.80;;;16.67;;
23590;SDS011;11973;52.098;7.582;2023-02-10T17:06:04;27.27;;;16.73;;
23590;SDS011;11973;52.098;7.582;2023-02-10T17:08:30;32.90;;;19.40;;
23590;SDS011;11973;52.098;7.582;2023-02-10T17:10:56;31.52;;;20.67;;
23590;SDS011;11973;52.098;7.582;2023-02-10T17:13:22;33.47;;;21.20;;
23590;SDS011;11973;52.098;7.582;2023-02-10T17:15:47;37.63;;;23.48;;
23590;SDS011;11973;52.098;7.582;2023-02-10T17:18:13;31.88;;;22.40;;
23590;SDS011;11973;52.098;7.582;2023-02-10T17:20:39;36.25;;;22.98;;
23590;SDS011;11973;52.098;7.582;2023-02-10T17:23:06;39.72;;;24.67;;
23590;SDS011;11973;52.098;7.582;2023-02-10T17:25:32;42.20;;;25.90;;
23590;SDS011;11973;52.098;7.582;2023-02-10T17:27:59;39.75;;;26.27;;
23590;SDS011;11973;52.098;7.582;2023-02-10T17:30:25;43.95;;;28.70;;
23590;SDS011;11973;52.098;7.582;2023-02-10T17:32:51;45.97;;;28.20;;
23590;SDS011;11973;52.098;7.582;2023-02-10T17:35:17;41.80;;;27.45;;
23590;SDS011;11973;52.098;7.582;2023-02-10T17:37:45;48.08;;;29.27;;
23590;SDS011;11973;52.098;7.582;2023-02-10T17:40:11;46.78;;;29.73;;
23590;SDS011;11973;52.098;7.582;2023-02-10T17:42:49;40.85;;;28.58;;
23590;SDS011;11973;52.098;7.582;2023-02-10T17:45:15;44.47;;;28.35;;
23590;SDS011;11973;52.098;7.582;2023-02-10T17:47:42;41.17;;;27.13;;
23590;SDS011;11973;52.098;7.582;2023-02-10T17:50:09;44.83;;;29.40;;
23590;SDS011;11973;52.098;7.582;2023-02-10T17:52:38;43.45;;;29.65;;
23590;SDS011;11973;52.098;7.582;2023-02-10T17:55:04;43.10;;;28.33;;
23590;SDS011;11973;52.098;7.582;2023-02-10T17:57:30;42.25;;;29.63;;
23590;SDS011;11973;52.098;7.582;2023-02-10T17:59:56;45.00;;;30.40;;
23590;SDS011;11973;52.098;7.582;2023-02-10T18:02:22;54.92;;;32.03;;
23590;SDS011;11973;52.098;7.582;2023-02-10T18:04:49;50.45;;;32.38;;
23590;SDS011;11973;52.098;7.582;2023-02-10T18:07:18;45.33;;;30.33;;
23590;SDS011;11973;52.098;7.582;2023-02-10T18:09:44;49.83;;;33.03;;
23590;SDS011;11973;52.098;7.582;2023-02-10T18:12:11;50.10;;;33.30;;
23590;SDS011;11973;52.098;7.582;2023-02-10T18:14:37;50.90;;;33.42;;
23590;SDS011;11973;52.098;7.582;2023-02-10T18:17:04;47.50;;;31.73;;
23590;SDS011;11973;52.098;7.582;2023-02-10T18:19:30;47.22;;;32.72;;
23590;SDS011;11973;52.098;7.582;2023-02-10T18:21:56;50.03;;;33.42;;
23590;SDS011;11973;52.098;7.582;2023-02-10T18:24:22;51.05;;;34.75;;
23590;SDS011;11973;52.098;7.582;2023-02-10T18:26:48;50.53;;;35.47;;
23590;SDS011;11973;52.098;7.582;2023-02-10T18:29:14;52.40;;;34.03;;
23590;SDS011;11973;52.098;7.582;2023-02-10T18:31:40;47.63;;;33.08;;
23590;SDS011;11973;52.098;7.582;2023-02-10T18:34:06;48.30;;;33.60;;
23590;SDS011;11973;52.098;7.582;2023-02-10T18:36:32;47.35;;;32.40;;
23590;SDS011;11973;52.098;7.582;2023-02-10T18:38:58;47.72;;;32.22;;
23590;SDS011;11973;52.098;7.582;2023-02-10T18:41:24;44.97;;;30.83;;
23590;SDS011;11973;52.098;7.582;2023-02-10T18:43:50;40.80;;;30.90;;
23590;SDS011;11973;52.098;7.582;2023-02-10T18:46:16;43.30;;;29.58;;
23590;SDS011;11973;52.098;7.582;2023-02-10T18:48:43;44.15;;;29.15;;
23590;SDS011;11973;52.098;7.582;2023-02-10T18:51:09;38.58;;;28.38;;
23590;SDS011;11973;52.098;7.582;2023-02-10T18:53:37;37.50;;;27.77;;
23590;SDS011;11973;52.098;7.582;2023-02-10T18:56:04;43.33;;;28.52;;
23590;SDS011;11973;52.098;7.582;2023-02-10T18:58:35;38.38;;;28.50;;
23590;SDS011;11973;52.098;7.582;2023-02-10T19:01:04;41.67;;;29.15;;
23590;SDS011;11973;52.098;7.582;2023-02-10T19:03:32;39.65;;;28.05;;
23590;SDS011;11973;52.098;7.582;2023-02-10T19:05:58;40.05;;;29.55;;
23590;SDS011;11973;52.098;7.582;2023-02-10T19:08:24;39.13;;;29.13;;
23590;SDS011;11973;52.098;7.582;2023-02-10T19:10:50;40.63;;;27.73;;
23590;SDS011;11973;52.098;7.582;2023-02-10T19:13:16;35.65;;;26.60;;
23590;SDS011;11973;52.098;7.582;2023-02-10T19:15:41;42.70;;;31.10;;
23590;SDS011;11973;52.098;7.582;2023-02-10T19:18:15;35.78;;;26.38;;
23590;SDS011;11973;52.098;7.582;2023-02-10T19:20:41;34.58;;;26.15;;
23590;SDS011;11973;52.098;7.582;2023-02-10T19:23:07;35.40;;;25.42;;
23590;SDS011;11973;52.098;7.582;2023-02-10T19:25:33;34.85;;;25.83;;
23590;SDS011;11973;52.098;7.582;2023-02-10T19:27:58;35.38;;;25.95;;
23590;SDS011;11973;52.098;7.582;2023-02-10T19:30:24;34.75;;;25.38;;
23590;SDS011;11973;52.098;7.582;2023-02-10T19:32:51;32.13;;;26.02;;
23590;SDS011;11973;52.098;7.582;2023-02-10T19:35:16;33.70;;;26.50;;
23590;SDS011;11973;52.098;7.582;2023-02-10T19:37:42;37.28;;;26.58;;
23590;SDS011;11973;52.098;7.582;2023-02-10T19:40:08;41.25;;;27.02;;
23590;SDS011;11973;52.098;7.582;2023-02-10T19:42:34;36.83;;;27.55;;
23590;SDS011;11973;52.098;7.582;2023-02-10T19:45:00;40.53;;;27.02;;
23590;SDS011;11973;52.098;7.582;2023-02-10T19:47:26;36.78;;;27.73;;
23590;SDS011;11973;52.098;7.582;2023-02-10T19:49:51;38.30;;;27.25;;
23590;SDS011;11973;52.098;7.582;2023-02-10T19:52:17;41.38;;;28.75;;
23590;SDS011;11973;52.098;7.582;2023-02-10T19:54:44;39.88;;;28.70;;
23590;SDS011;11973;52.098;7.582;2023-02-10T19:57:10;38.40;;;28.23;;
23590;SDS011;11973;52.098;7.582;2023-02-10T19:59:35;41.70;;;29.50;;
23590;SDS011;11973;52.098;7.582;2023-02-10T20:02:01;40.15;;;28.40;;
23590;SDS011;11973;52.098;7.582;2023-02-10T20:04:27;42.33;;;29.48;;
23590;SDS011;11973;52.098;7.582;2023-02-10T20:06:52;43.80;;;29.98;;
23590;SDS011;11973;52.098;7.582;2023-02-10T20:09:18;43.03;;;30.10;;
23590;SDS011;11973;52.098;7.582;2023-02-10T20:11:44;44.22;;;30.15;;
23590;SDS011;11973;52.098;7.582;2023-02-10T20:14:10;43.30;;;31.13;;
23590;SDS011;11973;52.098;7.582;2023-02-10T20:16:36;98.32;;;56.60;;
23590;SDS011;11973;52.098;7.582;2023-02-10T20:19:09;100.72;;;64.30;;
23590;SDS011;11973;52.098;7.582;2023-02-10T20:21:41;44.40;;;31.67;;
23590;SDS011;11973;52.098;7.582;2023-02-10T20:24:08;55.50;;;37.47;;
23590;SDS011;11973;52.098;7.582;2023-02-10T20:26:34;52.70;;;34.33;;
23590;SDS011;11973;52.098;7.582;2023-02-10T20:29:00;48.00;;;33.15;;
23590;SDS011;11973;52.098;7.582;2023-02-10T20:31:27;47.72;;;33.22;;
23590;SDS011;11973;52.098;7.582;2023-02-10T20:33:52;50.38;;;33.10;;
23590;SDS011;11973;52.098;7.582;2023-02-10T20:36:18;51.65;;;35.65;;
23590;SDS011;11973;52.098;7.582;2023-02-10T20:38:45;44.72;;;32.40;;
23590;SDS011;11973;52.098;7.582;2023-02-10T20:41:12;48.83;;;32.97;;
23590;SDS011;11973;52.098;7.582;2023-02-10T20:43:40;53.55;;;33.67;;
23590;SDS011;11973;52.098;7.582;2023-02-10T20:46:07;52.78;;;32.95;;
23590;SDS011;11973;52.098;7.582;2023-02-10T20:48:34;52.72;;;34.63;;
23590;SDS011;11973;52.098;7.582;2023-02-10T20:51:01;52.25;;;35.13;;
23590;SDS011;11973;52.098;7.582;2023-02-10T20:53:28;55.45;;;35.92;;
23590;SDS011;11973;52.098;7.582;2023-02-10T20:55:54;53.88;;;34.38;;
23590;SDS011;11973;52.098;7.582;2023-02-10T20:58:21;54.55;;;36.47;;
23590;SDS011;11973;52.098;7.582;2023-02-10T21:00:47;58.10;;;36.17;;
23590;SDS011;11973;52.098;7.582;2023-02-10T21:03:13;55.72;;;36.03;;
23590;SDS011;11973;52.098;7.582;2023-02-10T21:05:39;53.28;;;36.03;;
23590;SDS011;11973;52.098;7.582;2023-02-10T21:08:05;55.03;;;38.30;;
23590;SDS011;11973;52.098;7.582;2023-02-10T21:10:31;57.35;;;37.95;;
23590;SDS011;11973;52.098;7.582;2023-02-10T21:12:58;57.80;;;38.47;;